Time;durP1;ratioP1;P1;durP2;ratioP2;P2;SDS_P1;SDS_P2;PMS_P1;PMS_P2;Temp;Humidity;BMP_temperature;BMP_pressure;BME280_temperature;BME280_humidity;BME280_pressure;Samples;Min_cycle;Max_cycle;Signal;HPM_P1;HPM_P2
2020/12/07 00:04:20;;;;;;;;;;;;;;;;;;10513865;28;20372;-72
2020/12/07 00:09:21;;;;;;;;;;;;;;;;;;10513937;28;19952;-72
2020/12/07 00:14:22;;;;;;;;;;;;;;;;;;10513634;28;19924;-72
2020/12/07 00:19:23;;;;;;;;;;;;;;;;;;10513843;28;19912;-72
2020/12/07 00:24:24;;;;;;;;;;;;;;;;;;10513681;28;20010;-72
2020/12/07 00:29:25;;;;;;;;;;;;;;;;;;10512362;28;19961;-72
2020/12/07 00:34:26;;;;;;;;;;;;;;;;;;10515390;28;20265;-72
2020/12/07 00:39:27;;;;;;;;;;;;;;;;;;10521032;28;19912;-72
2020/12/07 00:44:28;;;;;;;;;;;;;;;;;;10520930;28;19919;-72
2020/12/07 00:49:28;;;;;;;;;;;;;;;;;;10520750;28;20395;-71
2020/12/07 00:54:29;;;;;;;;;;;;;;;;;;10520473;28;19912;-72
2020/12/07 00:59:30;;;;;;;;;;;;;;;;;;10520400;28;19916;-72
2020/12/07 01:04:31;;;;;;;;;;;;;;;;;;10520042;28;19951;-72
2020/12/07 01:09:32;;;;;;;;;;;;;;;;;;10520004;28;20569;-71
2020/12/07 01:14:33;;;;;;;;;;;;;;;;;;10519626;28;20012;-71
2020/12/07 01:19:34;;;;;;;;;;;;;;;;;;10519640;28;19913;-71
2020/12/07 01:24:35;;;;;;;;;;;;;;;;;;10519546;28;19920;-71
2020/12/07 01:29:36;;;;;;;;;;;;;;;;;;10519393;28;19919;-71
2020/12/07 01:34:36;;;;;;;;;;;;;;;;;;10519196;28;20135;-71
2020/12/07 01:39:37;;;;;;;;;;;;;;;;;;10518904;28;19919;-72
2020/12/07 01:44:38;;;;;;;;;;;;;;;;;;10518240;28;19939;-72
2020/12/07 01:49:39;;;;;;;;;;;;;;;;;;10518562;28;19955;-72
2020/12/07 01:54:40;;;;;;;;;;;;;;;;;;10518295;28;20066;-72
2020/12/07 01:59:41;;;;;;;;;;;;;;;;;;10518110;28;19913;-71
2020/12/07 02:04:42;;;;;;;;;;;;;;;;;;10517889;28;20300;-72
2020/12/07 02:09:43;;;;;;;;;;;;;;;;;;10517759;28;19921;-71
2020/12/07 02:14:44;;;;;;;;;;;;;;;;;;10517343;28;19920;-71
2020/12/07 02:19:44;;;;;;;;;;;;;;;;;;10517888;28;19912;-72
2020/12/07 02:24:45;;;;;;;;;;;;;;;;;;10517088;28;20023;-71
2020/12/07 02:29:46;;;;;;;;;;;;;;;;;;10517074;28;20364;-71
2020/12/07 02:34:47;;;;;;;;;;;;;;;;;;10516617;28;19965;-72
2020/12/07 02:39:48;;;;;;;;;;;;;;;;;;10516723;28;19912;-72
2020/12/07 02:44:49;;;;;;;;;;;;;;;;;;10514987;28;19923;-72
2020/12/07 02:49:50;;;;;;;;;;;;;;;;;;10516178;28;19924;-72
2020/12/07 02:54:51;;;;;;;;;;;;;;;;;;10514727;28;19913;-72
2020/12/07 02:59:52;;;;;;;;;;;;;;;;;;10513804;28;20368;-72
2020/12/07 03:04:52;;;;;;;;;;;;;;;;;;10515507;28;19924;-71
2020/12/07 03:09:53;;;;;;;;;;;;;;;;;;10515517;28;19966;-71
2020/12/07 03:14:54;;;;;;;;;;;;;;;;;;10513854;28;19921;-71
2020/12/07 03:19:55;;;;;;;;;;;;;;;;;;10515235;28;20288;-71
2020/12/07 03:24:56;;;;;;;;;;;;;;;;;;10514958;28;20038;-71
2020/12/07 03:29:57;;;;;;;;;;;;;;;;;;10514851;28;19912;-71
2020/12/07 03:34:58;;;;;;;;;;;;;;;;;;10514868;28;19919;-73
2020/12/07 03:39:59;;;;;;;;;;;;;;;;;;10514711;28;20386;-73
2020/12/07 03:44:59;;;;;;;;;;;;;;;;;;10514504;28;19916;-72
2020/12/07 03:50:00;;;;;;;;;;;;;;;;;;10514499;28;19923;-72
2020/12/07 03:55:01;;;;;;;;;;;;;;;;;;10514355;28;19998;-73
2020/12/07 04:00:02;;;;;;;;;;;;;;;;;;10514329;28;20388;-73
2020/12/07 04:05:11;;;;;;;;;;;;;;;;;;10514075;28;20306;-72
2020/12/07 04:10:13;;;;;;;;;;;;;;;;;;10519818;28;19923;-72
2020/12/07 04:15:14;;;;;;;;;;;;;;;;;;10522284;28;19920;-72
2020/12/07 04:20:14;;;;;;;;;;;;;;;;;;10522160;28;19916;-72
2020/12/07 04:25:15;;;;;;;;;;;;;;;;;;10522494;28;19961;-73
2020/12/07 04:30:16;;;;;;;;;;;;;;;;;;10521853;28;19912;-73
2020/12/07 04:35:17;;;;;;;;;;;;;;;;;;10521482;28;19912;-73
2020/12/07 04:40:18;;;;;;;;;;;;;;;;;;10521354;28;19912;-73
2020/12/07 04:45:19;;;;;;;;;;;;;;;;;;10521051;28;19920;-73
2020/12/07 04:50:23;;;;;;;;;;;;;;;;;;10521625;28;20004;-72
2020/12/07 04:55:24;;;;;;;;;;;;;;;;;;10520677;28;20395;-73
2020/12/07 05:00:25;;;;;;;;;;;;;;;;;;10521051;28;19912;-72
2020/12/07 05:05:26;;;;;;;;;;;;;;;;;;10520259;28;20031;-73
2020/12/07 05:10:33;;;;;;;;;;;;;;;;;;10520192;28;19920;-73
2020/12/07 05:15:34;;;;;;;;;;;;;;;;;;10519831;28;20007;-72
2020/12/07 05:20:34;;;;;;;;;;;;;;;;;;10518882;28;20007;-73
2020/12/07 05:25:35;;;;;;;;;;;;;;;;;;10519503;28;20356;-73
2020/12/07 05:30:41;;;;;;;;;;;;;;;;;;10519395;28;19955;-72
2020/12/07 05:35:41;;;;;;;;;;;;;;;;;;10519061;28;20372;-73
2020/12/07 05:40:42;;;;;;;;;;;;;;;;;;10517791;28;19952;-73
2020/12/07 05:45:43;;;;;;;;;;;;;;;;;;10518605;28;19920;-72
2020/12/07 05:50:44;;;;;;;;;;;;;;;;;;10518621;28;19913;-72
2020/12/07 05:55:45;;;;;;;;;;;;;;;;;;10518375;28;20388;-73
2020/12/07 06:00:46;;;;;;;;;;;;;;;;;;10518014;28;19937;-73
2020/12/07 06:05:47;;;;;;;;;;;;;;;;;;10517879;28;19970;-73
2020/12/07 06:10:48;;;;;;;;;;;;;;;;;;10517651;28;19927;-73
2020/12/07 06:15:48;;;;;;;;;;;;;;;;;;10516064;28;20448;-72
2020/12/07 06:20:49;;;;;;;;;;;;;;;;;;10517322;28;19912;-73
2020/12/07 06:25:50;;;;;;;;;;;;;;;;;;10516813;28;19921;-72
2020/12/07 06:30:51;;;;;;;;;;;;;;;;;;10516696;28;19913;-72
2020/12/07 06:35:52;;;;;;;;;;;;;;;;;;10515212;28;19924;-72
2020/12/07 06:40:53;;;;;;;;;;;;;;;;;;10517120;28;19962;-72
2020/12/07 06:45:54;;;;;;;;;;;;;;;;;;10516802;28;19966;-71
2020/12/07 06:50:57;;;;;;;;;;;;;;;;;;10516166;28;19913;-72
2020/12/07 06:55:58;;;;;;;;;;;;;;;;;;10516393;28;19912;-72
2020/12/07 07:00:59;;;;;;;;;;;;;;;;;;10515795;28;19912;-73
2020/12/07 07:05:59;;;;;;;;;;;;;;;;;;10515434;28;19920;-73
2020/12/07 07:11:00;;;;;;;;;;;;;;;;;;10515410;28;19996;-72
2020/12/07 07:16:01;;;;;;;;;;;;;;;;;;10514937;28;19920;-73
2020/12/07 07:21:02;;;;;;;;;;;;;;;;;;10515119;28;20422;-73
2020/12/07 07:26:11;;;;;;;;;;;;;;;;;;10514740;28;19920;-73
2020/12/07 07:31:13;;;;;;;;;;;;;;;;;;10514735;28;19916;-73
2020/12/07 07:36:13;;;;;;;;;;;;;;;;;;10514639;28;19916;-72
2020/12/07 07:41:14;;;;;;;;;;;;;;;;;;10514689;28;19999;-74
2020/12/07 07:46:15;;;;;;;;;;;;;;;;;;10513925;28;19927;-73
2020/12/07 08:17:28;;;;;;;;;;;;;;;;;;10514367;28;20360;-73
2020/12/07 08:22:29;;;;;;;;;;;;;;;;;;10514265;28;19936;-73
2020/12/07 08:27:30;;;;;;;;;;;;;;;;;;10513655;28;19928;-73
2020/12/07 08:32:32;;;;;;;;;;;;;;;;;;10513997;28;19912;-74
2020/12/07 08:37:33;;;;;;;;;;;;;;;;;;10513728;28;20682;-73
2020/12/07 08:42:34;;;;;;;;;;;;;;;;;;10513827;28;19915;-73
2020/12/07 08:47:34;;;;;;;;;;;;;;;;;;10513607;28;19925;-74
2020/12/07 08:52:36;;;;;;;;;;;;;;;;;;10513160;28;19912;-74
2020/12/07 08:57:37;;;;;;;;;;;;;;;;;;10518478;28;19963;-75
2020/12/07 09:02:38;;;;;;;;;;;;;;;;;;10520381;28;19951;-75
2020/12/07 09:07:38;;;;;;;;;;;;;;;;;;10520717;28;20014;-81
2020/12/07 09:12:39;;;;;;;;;;;;;;;;;;10520357;28;19915;-76
2020/12/07 09:17:40;;;;;;;;;;;;;;;;;;10520517;28;20306;-77
2020/12/07 09:22:41;;;;;;;;;;;;;;;;;;10518932;28;20005;-76
2020/12/07 09:27:42;;;;;;;;;;;;;;;;;;10519998;28;20188;-76
2020/12/07 09:32:43;;;;;;;;;;;;;;;;;;10512946;28;19969;-76
2020/12/07 09:37:44;;;;;;;;;;;;;;;;;;10507775;28;19912;-76
2020/12/07 09:42:45;;;;;;;;;;;;;;;;;;10519521;28;19912;-77
2020/12/07 09:47:46;;;;;;;;;;;;;;;;;;10519082;28;20406;-75
2020/12/07 09:52:46;;;;;;;;;;;;;;;;;;10518776;28;19912;-74
2020/12/07 09:57:47;;;;;;;;;;;;;;;;;;10516664;28;19934;-75
2020/12/07 10:02:48;;;;;;;;;;;;;;;;;;10513521;28;19912;-75
2020/12/07 10:07:50;;;;;;;;;;;;;;;;;;10518200;28;20011;-75
2020/12/07 10:12:51;;;;;;;;;;;;;;;;;;10510636;28;19920;-76
2020/12/07 10:17:52;;;;;;;;;;;;;;;;;;10515960;28;20272;-75
2020/12/07 10:22:53;;;;;;;;;;;;;;;;;;10518126;28;19942;-75
2020/12/07 10:27:54;;;;;;;;;;;;;;;;;;10508923;28;19920;-76
2020/12/07 10:32:55;;;;;;;;;;;;;;;;;;10517116;28;19912;-75
2020/12/07 10:37:55;;;;;;;;;;;;;;;;;;10515594;28;19913;-75
2020/12/07 10:42:56;;;;;;;;;;;;;;;;;;10516895;28;19919;-76
2020/12/07 10:47:57;;;;;;;;;;;;;;;;;;10516803;28;20654;-74
2020/12/07 10:52:58;;;;;;;;;;;;;;;;;;10516480;28;19912;-75
2020/12/07 10:57:59;;;;;;;;;;;;;;;;;;10516358;28;19955;-76
2020/12/07 11:03:00;;;;;;;;;;;;;;;;;;10516084;28;20363;-75
2020/12/07 11:08:02;;;;;;;;;;;;;;;;;;10515672;28;20010;-75
2020/12/07 11:13:10;;;;;;;;;;;;;;;;;;10515601;28;20280;-76
2020/12/07 11:18:11;;;;;;;;;;;;;;;;;;10515100;28;19913;-74
2020/12/07 11:23:12;;;;;;;;;;;;;;;;;;10515619;28;20323;-74
2020/12/07 11:28:13;;;;;;;;;;;;;;;;;;10515116;28;19924;-74
2020/12/07 11:33:14;;;;;;;;;;;;;;;;;;10515207;28;19982;-74
2020/12/07 11:38:19;;;;;;;;;;;;;;;;;;10515010;28;20006;-75
2020/12/07 11:43:37;;;;;;;;;;;;;;;;;;10515315;28;19912;-74
2020/12/07 11:48:38;;;;;;;;;;;;;;;;;;10514841;28;19926;-77
2020/12/07 11:53:39;;;;;;;;;;;;;;;;;;10514814;28;19919;-74
2020/12/07 11:58:40;;;;;;;;;;;;;;;;;;10514898;28;20556;-73
2020/12/07 12:03:40;;;;;;;;;;;;;;;;;;10514647;28;19913;-79
2020/12/07 12:08:41;;;;;;;;;;;;;;;;;;10514478;28;19920;-75
2020/12/07 12:13:42;;;;;;;;;;;;;;;;;;10514382;28;19931;-74
2020/12/07 12:18:43;;;;;;;;;;;;;;;;;;10514391;28;20322;-72
2020/12/07 12:23:44;;;;;;;;;;;;;;;;;;10514307;28;19912;-71
2020/12/07 12:28:45;;;;;;;;;;;;;;;;;;10515600;28;19955;-71
2020/12/07 12:33:47;;;;;;;;;;;;;;;;;;10519404;28;19923;-70
2020/12/07 12:38:48;;;;;;;;;;;;;;;;;;10520567;28;20371;-72
2020/12/07 12:43:49;;;;;;;;;;;;;;;;;;10520638;28;19948;-72
2020/12/07 12:48:50;;;;;;;;;;;;;;;;;;10522098;28;19920;-72
2020/12/07 12:53:50;;;;;;;;;;;;;;;;;;10519569;28;20061;-71
2020/12/07 12:58:51;;;;;;;;;;;;;;;;;;10520371;28;19920;-73
2020/12/07 13:03:53;;;;;;;;;;;;;;;;;;10519955;28;20580;-73
2020/12/07 13:08:54;;;;;;;;;;;;;;;;;;10519308;28;20003;-72
2020/12/07 13:13:55;;;;;;;;;;;;;;;;;;10516406;28;19920;-72
2020/12/07 13:18:58;;;;;;;;;;;;;;;;;;10516966;28;19912;-72
2020/12/07 13:29:05;;;;;;;;;;;;;;;;;;10518720;28;19922;-72
2020/12/07 13:34:06;;;;;;;;;;;;;;;;;;10518341;28;20296;-71
2020/12/07 13:39:07;;;;;;;;;;;;;;;;;;10521388;28;19966;-71
2020/12/07 13:44:08;;;;;;;;;;;;;;;;;;10517430;28;19912;-71
2020/12/07 13:49:09;;;;;;;;;;;;;;;;;;10519402;28;20007;-71
2020/12/07 13:54:10;;;;;;;;;;;;;;;;;;10511365;28;19912;-72
2020/12/07 13:59:11;;;;;;;;;;;;;;;;;;10518101;28;19920;-71
2020/12/07 14:09:13;;;;;;;;;;;;;;;;;;10519758;28;19924;-71
2020/12/07 14:14:13;;;;;;;;;;;;;;;;;;10517681;28;19973;-71
2020/12/07 14:19:19;;;;;;;;;;;;;;;;;;10518059;28;20324;-72
2020/12/07 14:40:14;;;;;;;;;;;;;;;;;;10513574;28;20011;-71
2020/12/07 14:45:20;;;;;;;;;;;;;;;;;;10516673;28;19922;-70
2020/12/07 14:50:26;;;;;;;;;;;;;;;;;;10516555;28;19923;-71
2020/12/07 15:05:52;;;;;;;;;;;;;;;;;;10516164;28;19920;-71
2020/12/07 15:11:39;;;;;;;;;;;;;;;;;;10515920;28;19920;-71
2020/12/07 15:16:16;;;;;;;;;;;;;;;;;;10515083;28;19920;-72
2020/12/07 15:21:17;;;;;;;;;;;;;;;;;;10515725;28;19918;-72
2020/12/07 15:26:18;;;;;;;;;;;;;;;;;;10513660;28;19992;-72
2020/12/07 15:31:20;;;;;;;;;;;;;;;;;;10511169;28;19981;-72
2020/12/07 15:36:21;;;;;;;;;;;;;;;;;;10508687;28;19951;-72
2020/12/07 15:41:22;;;;;;;;;;;;;;;;;;10510034;28;19965;-73
2020/12/07 15:46:33;;;;;;;;;;;;;;;;;;10511582;28;19930;-71
2020/12/07 15:51:34;;;;;;;;;;;;;;;;;;10511871;28;19916;-73
2020/12/07 15:56:35;;;;;;;;;;;;;;;;;;10513008;28;19969;-73
2020/12/07 16:01:36;;;;;;;;;;;;;;;;;;10512942;28;20276;-73
2020/12/07 16:06:37;;;;;;;;;;;;;;;;;;10518404;28;19973;-73
2020/12/07 16:11:37;;;;;;;;;;;;;;;;;;10521157;28;19912;-73
2020/12/07 16:16:38;;;;;;;;;;;;;;;;;;10520866;28;20376;-73
2020/12/07 16:21:39;;;;;;;;;;;;;;;;;;10520632;28;19912;-73
2020/12/07 16:26:40;;;;;;;;;;;;;;;;;;10523052;28;19920;-74
2020/12/07 16:31:41;;;;;;;;;;;;;;;;;;10521865;28;19912;-74
2020/12/07 16:36:42;;;;;;;;;;;;;;;;;;10521845;28;20532;-73
2020/12/07 16:41:43;;;;;;;;;;;;;;;;;;10519646;28;20002;-74
2020/12/07 16:46:44;;;;;;;;;;;;;;;;;;10521685;28;19920;-73
2020/12/07 16:51:44;;;;;;;;;;;;;;;;;;10521671;28;19965;-74
2020/12/07 16:56:46;;;;;;;;;;;;;;;;;;10521610;28;20298;-74
2020/12/07 17:01:47;;;;;;;;;;;;;;;;;;10521559;28;19920;-74
2020/12/07 17:06:48;;;;;;;;;;;;;;;;;;10518419;28;19920;-73
2020/12/07 17:11:49;;;;;;;;;;;;;;;;;;10520764;28;19961;-73
2020/12/07 17:16:50;;;;;;;;;;;;;;;;;;10519278;28;20011;-74
2020/12/07 17:21:51;;;;;;;;;;;;;;;;;;10520872;28;20006;-74
2020/12/07 17:26:52;;;;;;;;;;;;;;;;;;10519973;28;20326;-74
2020/12/07 17:31:53;;;;;;;;;;;;;;;;;;10519934;28;19973;-74
2020/12/07 17:36:54;;;;;;;;;;;;;;;;;;10519655;28;19912;-73
2020/12/07 17:41:54;;;;;;;;;;;;;;;;;;10519643;28;19912;-73
2020/12/07 17:46:55;;;;;;;;;;;;;;;;;;10519292;28;19923;-74
2020/12/07 17:51:56;;;;;;;;;;;;;;;;;;10518673;28;20394;-74
2020/12/07 17:56:57;;;;;;;;;;;;;;;;;;10518562;28;20324;-74
2020/12/07 18:01:58;;;;;;;;;;;;;;;;;;10518524;28;19927;-74
2020/12/07 18:06:59;;;;;;;;;;;;;;;;;;10518306;28;19973;-74
2020/12/07 18:12:00;;;;;;;;;;;;;;;;;;10518299;28;20364;-74
2020/12/07 18:17:01;;;;;;;;;;;;;;;;;;10518142;28;20007;-74
2020/12/07 18:22:02;;;;;;;;;;;;;;;;;;10517953;28;19912;-73
2020/12/07 18:27:03;;;;;;;;;;;;;;;;;;10517360;28;19928;-72
2020/12/07 18:32:03;;;;;;;;;;;;;;;;;;10517602;28;19916;-72
2020/12/07 18:37:04;;;;;;;;;;;;;;;;;;10517247;28;20003;-72
2020/12/07 18:42:05;;;;;;;;;;;;;;;;;;10516892;28;19935;-72
2020/12/07 18:47:06;;;;;;;;;;;;;;;;;;10516449;28;19924;-71
2020/12/07 18:52:07;;;;;;;;;;;;;;;;;;10516879;28;19912;-72
2020/12/07 18:57:08;;;;;;;;;;;;;;;;;;10516578;28;19937;-72
2020/12/07 19:02:09;;;;;;;;;;;;;;;;;;10516568;28;19951;-72
2020/12/07 19:07:10;;;;;;;;;;;;;;;;;;10516184;28;20043;-71
2020/12/07 19:12:11;;;;;;;;;;;;;;;;;;10515740;28;19912;-71
2020/12/07 19:17:12;;;;;;;;;;;;;;;;;;10515772;28;19934;-72
2020/12/07 19:22:14;;;;;;;;;;;;;;;;;;10511691;28;19919;-71
2020/12/07 19:27:15;;;;;;;;;;;;;;;;;;10515471;28;20284;-72
2020/12/07 19:32:17;;;;;;;;;;;;;;;;;;10512235;28;19913;-72
2020/12/07 19:37:18;;;;;;;;;;;;;;;;;;10511445;28;19927;-73
2020/12/07 19:42:20;;;;;;;;;;;;;;;;;;10510845;28;19912;-73
2020/12/07 19:47:22;;;;;;;;;;;;;;;;;;10512906;28;20031;-72
2020/12/07 19:52:23;;;;;;;;;;;;;;;;;;10514394;28;20404;-72
2020/12/07 19:57:24;;;;;;;;;;;;;;;;;;10513651;28;19962;-72
2020/12/07 20:02:25;;;;;;;;;;;;;;;;;;10514190;28;19912;-71
2020/12/07 20:07:26;;;;;;;;;;;;;;;;;;10513565;28;19920;-69
2020/12/07 20:12:27;;;;;;;;;;;;;;;;;;10512654;28;20846;-70
2020/12/07 20:17:28;;;;;;;;;;;;;;;;;;10508626;28;19984;-73
2020/12/07 20:22:29;;;;;;;;;;;;;;;;;;10503482;28;20053;-71
2020/12/07 20:27:30;;;;;;;;;;;;;;;;;;10503310;28;19928;-71
2020/12/07 20:32:30;;;;;;;;;;;;;;;;;;10503820;28;20258;-71
2020/12/07 20:37:31;;;;;;;;;;;;;;;;;;10505080;28;19916;-72
2020/12/07 20:42:32;;;;;;;;;;;;;;;;;;10510830;28;19923;-71
2020/12/07 20:47:33;;;;;;;;;;;;;;;;;;10511905;28;20465;-71
2020/12/07 20:52:34;;;;;;;;;;;;;;;;;;10519218;28;20015;-71
2020/12/07 20:57:35;;;;;;;;;;;;;;;;;;10521457;28;19916;-72
2020/12/07 21:02:36;;;;;;;;;;;;;;;;;;10520981;28;19917;-71
2020/12/07 21:07:37;;;;;;;;;;;;;;;;;;10521436;28;19921;-72
2020/12/07 21:12:38;;;;;;;;;;;;;;;;;;10516303;28;19916;-71
2020/12/07 21:17:39;;;;;;;;;;;;;;;;;;10519682;28;19913;-73
2020/12/07 21:22:39;;;;;;;;;;;;;;;;;;10523381;28;20319;-71
2020/12/07 21:27:40;;;;;;;;;;;;;;;;;;10517984;28;19974;-73
2020/12/07 21:32:43;;;;;;;;;;;;;;;;;;10518853;28;19913;-72
2020/12/07 21:37:44;;;;;;;;;;;;;;;;;;10519130;28;20416;-72
2020/12/07 21:42:45;;;;;;;;;;;;;;;;;;10520225;28;19958;-72
2020/12/07 21:47:46;;;;;;;;;;;;;;;;;;10522811;28;20061;-72
2020/12/07 21:52:47;;;;;;;;;;;;;;;;;;10518886;28;19913;-74
2020/12/07 21:57:48;;;;;;;;;;;;;;;;;;10518377;28;19913;-73
2020/12/07 22:02:49;;;;;;;;;;;;;;;;;;10517689;28;19975;-72
2020/12/07 22:07:50;;;;;;;;;;;;;;;;;;10518241;28;19920;-72
2020/12/07 22:12:51;;;;;;;;;;;;;;;;;;10516419;28;19916;-73
2020/12/07 22:17:52;;;;;;;;;;;;;;;;;;10516756;28;20275;-72
2020/12/07 22:22:53;;;;;;;;;;;;;;;;;;10515789;28;20015;-73
2020/12/07 22:27:54;;;;;;;;;;;;;;;;;;10520100;28;19920;-73
2020/12/07 22:32:55;;;;;;;;;;;;;;;;;;10514280;28;19912;-73
2020/12/07 22:37:56;;;;;;;;;;;;;;;;;;10516331;28;20014;-73
2020/12/07 22:42:57;;;;;;;;;;;;;;;;;;10517181;28;20353;-73
2020/12/07 22:47:58;;;;;;;;;;;;;;;;;;10516959;28;20022;-72
2020/12/07 22:52:58;;;;;;;;;;;;;;;;;;10516722;28;19912;-72
2020/12/07 22:57:59;;;;;;;;;;;;;;;;;;10516488;28;19938;-72
2020/12/07 23:03:00;;;;;;;;;;;;;;;;;;10514882;28;19939;-72
2020/12/07 23:08:01;;;;;;;;;;;;;;;;;;10516147;28;19929;-71
2020/12/07 23:13:02;;;;;;;;;;;;;;;;;;10514788;28;19932;-72
2020/12/07 23:18:03;;;;;;;;;;;;;;;;;;10514024;28;19917;-72
2020/12/07 23:23:04;;;;;;;;;;;;;;;;;;10518700;28;20003;-73
2020/12/07 23:28:05;;;;;;;;;;;;;;;;;;10514145;28;19920;-73
2020/12/07 23:33:06;;;;;;;;;;;;;;;;;;10514681;28;20292;-73
2020/12/07 23:38:08;;;;;;;;;;;;;;;;;;10514796;28;19919;-73
2020/12/07 23:43:09;;;;;;;;;;;;;;;;;;10514672;28;19963;-73
2020/12/07 23:48:10;;;;;;;;;;;;;;;;;;10514378;28;20012;-72
2020/12/07 23:53:12;;;;;;;;;;;;;;;;;;10514600;28;20006;-72
2020/12/07 23:58:13;;;;;;;;;;;;;;;;;;10513277;28;19970;-73
